sensor_id;sensor_type;location;lat;lon;timestamp;P1;durP1;ratioP1;P2;durP2;ratioP2
66607;SDS011;53462;39.616;8.824;2023-05-10T00:00:26;11.32;;;4.72;;
66607;SDS011;53462;39.616;8.824;2023-05-10T00:02:52;8.73;;;4.75;;
66607;SDS011;53462;39.616;8.824;2023-05-10T00:05:18;5.85;;;3.97;;
66607;SDS011;53462;39.616;8.824;2023-05-10T00:07:44;8.68;;;4.28;;
66607;SDS011;53462;39.616;8.824;2023-05-10T00:10:10;6.35;;;4.32;;
66607;SDS011;53462;39.616;8.824;2023-05-10T00:12:36;9.50;;;3.80;;
66607;SDS011;53462;39.616;8.824;2023-05-10T00:15:02;9.13;;;4.20;;
66607;SDS011;53462;39.616;8.824;2023-05-10T00:17:29;9.45;;;4.28;;
66607;SDS011;53462;39.616;8.824;2023-05-10T00:19:55;6.95;;;3.92;;
66607;SDS011;53462;39.616;8.824;2023-05-10T00:22:21;8.75;;;4.53;;
66607;SDS011;53462;39.616;8.824;2023-05-10T00:24:46;8.70;;;4.55;;
66607;SDS011;53462;39.616;8.824;2023-05-10T00:27:12;9.70;;;4.15;;
66607;SDS011;53462;39.616;8.824;2023-05-10T00:29:38;10.35;;;4.53;;
66607;SDS011;53462;39.616;8.824;2023-05-10T00:32:04;7.55;;;4.07;;
66607;SDS011;53462;39.616;8.824;2023-05-10T00:34:31;9.77;;;4.35;;
66607;SDS011;53462;39.616;8.824;2023-05-10T00:36:56;8.48;;;3.83;;
66607;SDS011;53462;39.616;8.824;2023-05-10T00:39:22;10.82;;;4.30;;
66607;SDS011;53462;39.616;8.824;2023-05-10T00:41:48;8.93;;;4.43;;
66607;SDS011;53462;39.616;8.824;2023-05-10T00:44:15;9.75;;;4.15;;
66607;SDS011;53462;39.616;8.824;2023-05-10T00:46:43;8.45;;;3.95;;
66607;SDS011;53462;39.616;8.824;2023-05-10T00:49:09;7.65;;;4.25;;
66607;SDS011;53462;39.616;8.824;2023-05-10T00:51:36;8.27;;;3.88;;
66607;SDS011;53462;39.616;8.824;2023-05-10T00:54:02;9.32;;;4.47;;
66607;SDS011;53462;39.616;8.824;2023-05-10T00:56:28;10.90;;;4.68;;
66607;SDS011;53462;39.616;8.824;2023-05-10T00:58:55;7.78;;;4.28;;
66607;SDS011;53462;39.616;8.824;2023-05-10T01:01:21;7.78;;;4.75;;
66607;SDS011;53462;39.616;8.824;2023-05-10T01:03:47;8.93;;;4.97;;
66607;SDS011;53462;39.616;8.824;2023-05-10T01:06:14;7.85;;;4.45;;
66607;SDS011;53462;39.616;8.824;2023-05-10T01:08:40;9.73;;;4.47;;
66607;SDS011;53462;39.616;8.824;2023-05-10T01:11:06;11.50;;;4.55;;
66607;SDS011;53462;39.616;8.824;2023-05-10T01:13:36;7.28;;;4.25;;
66607;SDS011;53462;39.616;8.824;2023-05-10T01:16:04;10.20;;;4.28;;
66607;SDS011;53462;39.616;8.824;2023-05-10T01:18:35;8.85;;;4.35;;
66607;SDS011;53462;39.616;8.824;2023-05-10T01:21:10;9.25;;;4.55;;
66607;SDS011;53462;39.616;8.824;2023-05-10T01:32:24;7.72;;;4.25;;
66607;SDS011;53462;39.616;8.824;2023-05-10T01:35:14;7.60;;;3.92;;
66607;SDS011;53462;39.616;8.824;2023-05-10T01:40:58;5.65;;;3.58;;
66607;SDS011;53462;39.616;8.824;2023-05-10T01:43:42;11.60;;;3.97;;
66607;SDS011;53462;39.616;8.824;2023-05-10T01:46:33;7.18;;;4.07;;
66607;SDS011;53462;39.616;8.824;2023-05-10T01:49:02;6.50;;;4.15;;
66607;SDS011;53462;39.616;8.824;2023-05-10T01:51:47;7.00;;;4.32;;
66607;SDS011;53462;39.616;8.824;2023-05-10T01:54:19;5.22;;;3.53;;
66607;SDS011;53462;39.616;8.824;2023-05-10T01:56:47;8.80;;;4.32;;
66607;SDS011;53462;39.616;8.824;2023-05-10T01:59:18;6.97;;;4.53;;
66607;SDS011;53462;39.616;8.824;2023-05-10T02:01:46;7.78;;;3.95;;
66607;SDS011;53462;39.616;8.824;2023-05-10T02:04:15;8.10;;;4.55;;
66607;SDS011;53462;39.616;8.824;2023-05-10T02:06:44;7.78;;;4.32;;
66607;SDS011;53462;39.616;8.824;2023-05-10T02:09:13;9.25;;;4.20;;
66607;SDS011;53462;39.616;8.824;2023-05-10T02:11:41;5.72;;;3.63;;
66607;SDS011;53462;39.616;8.824;2023-05-10T02:14:09;6.05;;;3.42;;
66607;SDS011;53462;39.616;8.824;2023-05-10T02:16:36;8.30;;;3.53;;
66607;SDS011;53462;39.616;8.824;2023-05-10T02:19:04;10.48;;;3.80;;
66607;SDS011;53462;39.616;8.824;2023-05-10T02:21:31;8.68;;;3.85;;
66607;SDS011;53462;39.616;8.824;2023-05-10T02:23:59;6.80;;;3.00;;
66607;SDS011;53462;39.616;8.824;2023-05-10T02:26:27;9.88;;;3.53;;
66607;SDS011;53462;39.616;8.824;2023-05-10T02:28:56;6.47;;;3.67;;
66607;SDS011;53462;39.616;8.824;2023-05-10T02:31:23;8.07;;;3.38;;
66607;SDS011;53462;39.616;8.824;2023-05-10T02:33:50;7.32;;;3.30;;
66607;SDS011;53462;39.616;8.824;2023-05-10T02:36:17;6.75;;;3.40;;
66607;SDS011;53462;39.616;8.824;2023-05-10T02:38:46;5.47;;;3.10;;
66607;SDS011;53462;39.616;8.824;2023-05-10T02:41:15;9.95;;;3.50;;
66607;SDS011;53462;39.616;8.824;2023-05-10T02:43:42;8.68;;;3.42;;
66607;SDS011;53462;39.616;8.824;2023-05-10T02:46:09;6.60;;;3.28;;
66607;SDS011;53462;39.616;8.824;2023-05-10T02:48:35;7.18;;;3.70;;
66607;SDS011;53462;39.616;8.824;2023-05-10T02:51:04;7.78;;;3.70;;
66607;SDS011;53462;39.616;8.824;2023-05-10T02:53:33;9.05;;;3.08;;
66607;SDS011;53462;39.616;8.824;2023-05-10T02:56:04;10.30;;;3.30;;
66607;SDS011;53462;39.616;8.824;2023-05-10T02:58:37;7.15;;;2.88;;
66607;SDS011;53462;39.616;8.824;2023-05-10T03:01:03;8.02;;;3.30;;
66607;SDS011;53462;39.616;8.824;2023-05-10T03:03:29;8.98;;;3.10;;
66607;SDS011;53462;39.616;8.824;2023-05-10T03:05:55;4.75;;;3.20;;
66607;SDS011;53462;39.616;8.824;2023-05-10T03:08:22;5.00;;;2.90;;
66607;SDS011;53462;39.616;8.824;2023-05-10T03:11:06;10.55;;;2.92;;
66607;SDS011;53462;39.616;8.824;2023-05-10T03:14:13;7.43;;;2.97;;
66607;SDS011;53462;39.616;8.824;2023-05-10T03:16:45;7.13;;;2.90;;
66607;SDS011;53462;39.616;8.824;2023-05-10T03:19:22;8.25;;;2.70;;
66607;SDS011;53462;39.616;8.824;2023-05-10T03:21:53;7.25;;;3.40;;
66607;SDS011;53462;39.616;8.824;2023-05-10T03:24:22;5.93;;;3.30;;
66607;SDS011;53462;39.616;8.824;2023-05-10T03:26:51;8.50;;;3.10;;
66607;SDS011;53462;39.616;8.824;2023-05-10T03:29:22;6.38;;;2.80;;
66607;SDS011;53462;39.616;8.824;2023-05-10T03:31:51;8.77;;;2.88;;
66607;SDS011;53462;39.616;8.824;2023-05-10T03:34:22;8.13;;;2.83;;
66607;SDS011;53462;39.616;8.824;2023-05-10T03:36:50;6.80;;;2.80;;
66607;SDS011;53462;39.616;8.824;2023-05-10T03:39:16;8.18;;;3.00;;
66607;SDS011;53462;39.616;8.824;2023-05-10T03:41:47;7.32;;;3.05;;
66607;SDS011;53462;39.616;8.824;2023-05-10T03:44:13;7.53;;;2.78;;
66607;SDS011;53462;39.616;8.824;2023-05-10T03:46:39;4.60;;;2.85;;
66607;SDS011;53462;39.616;8.824;2023-05-10T03:49:05;6.80;;;3.17;;
66607;SDS011;53462;39.616;8.824;2023-05-10T03:51:31;5.10;;;2.40;;
66607;SDS011;53462;39.616;8.824;2023-05-10T03:53:57;5.53;;;2.42;;
66607;SDS011;53462;39.616;8.824;2023-05-10T03:56:24;8.65;;;2.60;;
66607;SDS011;53462;39.616;8.824;2023-05-10T03:58:50;4.60;;;2.28;;
66607;SDS011;53462;39.616;8.824;2023-05-10T04:01:16;6.47;;;2.50;;
66607;SDS011;53462;39.616;8.824;2023-05-10T04:03:42;7.15;;;2.10;;
66607;SDS011;53462;39.616;8.824;2023-05-10T04:06:08;6.13;;;2.30;;
66607;SDS011;53462;39.616;8.824;2023-05-10T04:08:36;6.22;;;2.17;;
66607;SDS011;53462;39.616;8.824;2023-05-10T04:11:09;6.50;;;2.22;;
66607;SDS011;53462;39.616;8.824;2023-05-10T04:13:37;7.70;;;2.42;;
66607;SDS011;53462;39.616;8.824;2023-05-10T04:16:03;4.53;;;2.08;;
66607;SDS011;53462;39.616;8.824;2023-05-10T04:18:30;6.78;;;2.30;;
66607;SDS011;53462;39.616;8.824;2023-05-10T04:20:57;5.15;;;2.10;;
66607;SDS011;53462;39.616;8.824;2023-05-10T04:23:22;8.77;;;2.63;;
66607;SDS011;53462;39.616;8.824;2023-05-10T04:25:48;5.82;;;2.45;;
66607;SDS011;53462;39.616;8.824;2023-05-10T04:28:14;6.35;;;2.50;;
66607;SDS011;53462;39.616;8.824;2023-05-10T04:30:40;8.90;;;2.40;;
66607;SDS011;53462;39.616;8.824;2023-05-10T04:33:06;8.07;;;2.15;;
66607;SDS011;53462;39.616;8.824;2023-05-10T04:35:32;7.53;;;2.15;;
66607;SDS011;53462;39.616;8.824;2023-05-10T04:37:59;6.47;;;1.90;;
66607;SDS011;53462;39.616;8.824;2023-05-10T04:40:25;6.07;;;2.10;;
66607;SDS011;53462;39.616;8.824;2023-05-10T04:42:51;8.55;;;2.33;;
66607;SDS011;53462;39.616;8.824;2023-05-10T04:45:17;5.97;;;1.90;;
66607;SDS011;53462;39.616;8.824;2023-05-10T04:47:43;7.55;;;2.10;;
66607;SDS011;53462;39.616;8.824;2023-05-10T04:50:09;6.60;;;2.10;;
66607;SDS011;53462;39.616;8.824;2023-05-10T04:52:35;4.15;;;2.03;;
66607;SDS011;53462;39.616;8.824;2023-05-10T04:55:01;7.13;;;1.98;;
66607;SDS011;53462;39.616;8.824;2023-05-10T04:57:27;6.57;;;1.77;;
66607;SDS011;53462;39.616;8.824;2023-05-10T04:59:53;4.80;;;1.95;;
66607;SDS011;53462;39.616;8.824;2023-05-10T05:02:19;8.70;;;1.77;;
66607;SDS011;53462;39.616;8.824;2023-05-10T05:04:45;4.90;;;2.08;;
66607;SDS011;53462;39.616;8.824;2023-05-10T05:07:11;7.20;;;1.83;;
66607;SDS011;53462;39.616;8.824;2023-05-10T05:09:37;4.53;;;1.40;;
66607;SDS011;53462;39.616;8.824;2023-05-10T05:12:03;7.78;;;1.88;;
66607;SDS011;53462;39.616;8.824;2023-05-10T05:14:29;2.90;;;1.60;;
66607;SDS011;53462;39.616;8.824;2023-05-10T05:16:55;5.88;;;1.60;;
66607;SDS011;53462;39.616;8.824;2023-05-10T05:19:21;6.65;;;1.63;;
66607;SDS011;53462;39.616;8.824;2023-05-10T05:21:47;4.75;;;1.40;;
66607;SDS011;53462;39.616;8.824;2023-05-10T05:24:13;5.80;;;1.65;;
66607;SDS011;53462;39.616;8.824;2023-05-10T05:26:39;6.22;;;1.80;;
66607;SDS011;53462;39.616;8.824;2023-05-10T05:29:05;8.82;;;1.58;;
66607;SDS011;53462;39.616;8.824;2023-05-10T05:31:31;7.35;;;1.60;;
66607;SDS011;53462;39.616;8.824;2023-05-10T05:33:57;4.85;;;1.70;;
66607;SDS011;53462;39.616;8.824;2023-05-10T05:36:23;7.15;;;1.60;;
66607;SDS011;53462;39.616;8.824;2023-05-10T05:38:49;6.18;;;1.65;;
66607;SDS011;53462;39.616;8.824;2023-05-10T05:41:15;6.38;;;2.10;;
66607;SDS011;53462;39.616;8.824;2023-05-10T05:43:41;5.82;;;1.70;;
66607;SDS011;53462;39.616;8.824;2023-05-10T05:46:07;4.65;;;1.90;;
66607;SDS011;53462;39.616;8.824;2023-05-10T05:48:33;4.65;;;1.80;;
66607;SDS011;53462;39.616;8.824;2023-05-10T05:50:59;7.32;;;2.00;;
66607;SDS011;53462;39.616;8.824;2023-05-10T05:53:24;6.18;;;1.67;;
66607;SDS011;53462;39.616;8.824;2023-05-10T05:55:51;6.40;;;2.10;;
66607;SDS011;53462;39.616;8.824;2023-05-10T05:58:19;9.65;;;2.30;;
66607;SDS011;53462;39.616;8.824;2023-05-10T06:00:45;6.88;;;2.00;;
66607;SDS011;53462;39.616;8.824;2023-05-10T06:03:11;8.55;;;2.80;;
66607;SDS011;53462;39.616;8.824;2023-05-10T06:05:38;6.18;;;2.22;;
66607;SDS011;53462;39.616;8.824;2023-05-10T06:08:04;6.97;;;2.22;;
66607;SDS011;53462;39.616;8.824;2023-05-10T06:10:30;5.60;;;2.00;;
66607;SDS011;53462;39.616;8.824;2023-05-10T06:12:56;6.10;;;1.70;;
66607;SDS011;53462;39.616;8.824;2023-05-10T06:15:22;7.38;;;1.70;;
66607;SDS011;53462;39.616;8.824;2023-05-10T06:17:48;6.68;;;1.85;;
66607;SDS011;53462;39.616;8.824;2023-05-10T06:20:14;8.07;;;1.90;;
66607;SDS011;53462;39.616;8.824;2023-05-10T06:22:41;7.47;;;2.00;;
66607;SDS011;53462;39.616;8.824;2023-05-10T06:25:07;7.55;;;1.70;;
66607;SDS011;53462;39.616;8.824;2023-05-10T06:27:33;6.53;;;2.00;;
66607;SDS011;53462;39.616;8.824;2023-05-10T06:29:59;7.65;;;1.60;;
66607;SDS011;53462;39.616;8.824;2023-05-10T06:32:25;6.45;;;1.50;;
66607;SDS011;53462;39.616;8.824;2023-05-10T06:34:51;6.50;;;1.80;;
66607;SDS011;53462;39.616;8.824;2023-05-10T06:37:17;6.13;;;1.67;;
66607;SDS011;53462;39.616;8.824;2023-05-10T06:39:43;6.50;;;1.50;;
66607;SDS011;53462;39.616;8.824;2023-05-10T06:42:10;6.53;;;1.30;;
66607;SDS011;53462;39.616;8.824;2023-05-10T06:44:36;5.97;;;1.30;;
66607;SDS011;53462;39.616;8.824;2023-05-10T06:47:02;6.78;;;1.38;;
66607;SDS011;53462;39.616;8.824;2023-05-10T06:49:28;5.13;;;1.20;;
66607;SDS011;53462;39.616;8.824;2023-05-10T06:51:55;5.95;;;1.35;;
66607;SDS011;53462;39.616;8.824;2023-05-10T06:54:21;6.07;;;1.10;;
66607;SDS011;53462;39.616;8.824;2023-05-10T06:56:48;5.85;;;1.33;;
66607;SDS011;53462;39.616;8.824;2023-05-10T06:59:14;8.15;;;1.58;;
66607;SDS011;53462;39.616;8.824;2023-05-10T07:01:42;5.93;;;1.10;;
66607;SDS011;53462;39.616;8.824;2023-05-10T07:04:08;7.38;;;1.50;;
66607;SDS011;53462;39.616;8.824;2023-05-10T07:06:34;6.40;;;1.20;;
66607;SDS011;53462;39.616;8.824;2023-05-10T07:09:00;6.20;;;1.25;;
66607;SDS011;53462;39.616;8.824;2023-05-10T07:11:26;5.38;;;1.20;;
66607;SDS011;53462;39.616;8.824;2023-05-10T07:13:52;9.73;;;1.55;;
66607;SDS011;53462;39.616;8.824;2023-05-10T07:16:18;6.30;;;1.20;;
66607;SDS011;53462;39.616;8.824;2023-05-10T07:18:44;6.90;;;1.10;;
66607;SDS011;53462;39.616;8.824;2023-05-10T07:21:10;5.30;;;1.10;;
66607;SDS011;53462;39.616;8.824;2023-05-10T07:23:36;4.47;;;1.00;;
66607;SDS011;53462;39.616;8.824;2023-05-10T07:26:01;5.72;;;1.50;;
66607;SDS011;53462;39.616;8.824;2023-05-10T07:28:27;5.30;;;0.95;;
66607;SDS011;53462;39.616;8.824;2023-05-10T07:30:53;5.88;;;1.40;;
66607;SDS011;53462;39.616;8.824;2023-05-10T07:33:19;5.13;;;1.05;;
66607;SDS011;53462;39.616;8.824;2023-05-10T07:35:45;5.45;;;1.15;;
66607;SDS011;53462;39.616;8.824;2023-05-10T07:38:11;5.60;;;1.30;;
66607;SDS011;53462;39.616;8.824;2023-05-10T07:40:37;7.05;;;1.27;;
66607;SDS011;53462;39.616;8.824;2023-05-10T07:43:04;6.35;;;1.10;;
66607;SDS011;53462;39.616;8.824;2023-05-10T07:45:30;10.95;;;1.73;;
66607;SDS011;53462;39.616;8.824;2023-05-10T07:47:55;10.27;;;1.25;;
66607;SDS011;53462;39.616;8.824;2023-05-10T07:50:21;10.55;;;1.50;;
66607;SDS011;53462;39.616;8.824;2023-05-10T07:52:47;9.38;;;1.30;;
66607;SDS011;53462;39.616;8.824;2023-05-10T07:55:13;9.57;;;1.77;;
66607;SDS011;53462;39.616;8.824;2023-05-10T07:57:39;5.90;;;1.20;;
66607;SDS011;53462;39.616;8.824;2023-05-10T08:00:06;5.50;;;1.35;;
66607;SDS011;53462;39.616;8.824;2023-05-10T08:02:38;7.85;;;1.52;;
66607;SDS011;53462;39.616;8.824;2023-05-10T08:05:04;5.20;;;1.33;;
66607;SDS011;53462;39.616;8.824;2023-05-10T08:07:31;7.03;;;1.63;;
66607;SDS011;53462;39.616;8.824;2023-05-10T08:09:56;8.73;;;1.48;;
66607;SDS011;53462;39.616;8.824;2023-05-10T08:12:22;6.00;;;1.70;;
66607;SDS011;53462;39.616;8.824;2023-05-10T08:14:48;6.13;;;1.23;;
66607;SDS011;53462;39.616;8.824;2023-05-10T08:17:14;5.95;;;1.20;;
66607;SDS011;53462;39.616;8.824;2023-05-10T08:19:40;6.03;;;1.30;;
66607;SDS011;53462;39.616;8.824;2023-05-10T08:22:06;8.88;;;1.70;;
66607;SDS011;53462;39.616;8.824;2023-05-10T08:24:32;8.32;;;1.77;;
66607;SDS011;53462;39.616;8.824;2023-05-10T08:27:03;10.75;;;1.73;;
66607;SDS011;53462;39.616;8.824;2023-05-10T08:29:32;7.70;;;1.50;;
66607;SDS011;53462;39.616;8.824;2023-05-10T08:31:58;9.63;;;1.65;;
66607;SDS011;53462;39.616;8.824;2023-05-10T08:34:24;11.90;;;1.73;;
66607;SDS011;53462;39.616;8.824;2023-05-10T08:36:50;7.57;;;1.33;;
66607;SDS011;53462;39.616;8.824;2023-05-10T08:39:16;7.93;;;1.67;;
66607;SDS011;53462;39.616;8.824;2023-05-10T08:41:42;9.63;;;1.95;;
66607;SDS011;53462;39.616;8.824;2023-05-10T08:44:10;9.10;;;1.50;;
66607;SDS011;53462;39.616;8.824;2023-05-10T08:46:36;11.23;;;1.95;;
66607;SDS011;53462;39.616;8.824;2023-05-10T08:49:06;14.82;;;1.98;;
66607;SDS011;53462;39.616;8.824;2023-05-10T08:51:35;9.88;;;1.70;;
66607;SDS011;53462;39.616;8.824;2023-05-10T08:54:03;8.93;;;1.67;;
66607;SDS011;53462;39.616;8.824;2023-05-10T08:56:30;11.57;;;1.75;;
66607;SDS011;53462;39.616;8.824;2023-05-10T08:58:57;14.05;;;2.20;;
66607;SDS011;53462;39.616;8.824;2023-05-10T09:01:23;11.15;;;2.47;;
66607;SDS011;53462;39.616;8.824;2023-05-10T09:03:50;9.52;;;1.65;;
66607;SDS011;53462;39.616;8.824;2023-05-10T09:06:16;14.82;;;2.08;;
66607;SDS011;53462;39.616;8.824;2023-05-10T09:08:42;8.05;;;1.50;;
66607;SDS011;53462;39.616;8.824;2023-05-10T09:11:09;10.40;;;1.63;;
66607;SDS011;53462;39.616;8.824;2023-05-10T09:13:36;8.30;;;1.85;;
66607;SDS011;53462;39.616;8.824;2023-05-10T09:16:03;9.90;;;2.13;;
66607;SDS011;53462;39.616;8.824;2023-05-10T09:18:29;12.70;;;1.77;;
66607;SDS011;53462;39.616;8.824;2023-05-10T09:20:56;12.63;;;2.10;;
66607;SDS011;53462;39.616;8.824;2023-05-10T09:23:22;9.38;;;1.95;;
66607;SDS011;53462;39.616;8.824;2023-05-10T09:25:55;10.15;;;1.92;;
66607;SDS011;53462;39.616;8.824;2023-05-10T09:28:34;9.43;;;1.83;;
66607;SDS011;53462;39.616;8.824;2023-05-10T09:31:15;11.55;;;1.75;;
66607;SDS011;53462;39.616;8.824;2023-05-10T09:33:44;12.93;;;1.50;;
66607;SDS011;53462;39.616;8.824;2023-05-10T09:36:14;9.52;;;1.60;;
66607;SDS011;53462;39.616;8.824;2023-05-10T09:38:44;11.05;;;1.92;;
66607;SDS011;53462;39.616;8.824;2023-05-10T09:43:41;12.43;;;1.70;;
66607;SDS011;53462;39.616;8.824;2023-05-10T09:46:08;11.95;;;1.90;;
66607;SDS011;53462;39.616;8.824;2023-05-10T09:48:40;14.60;;;2.35;;
66607;SDS011;53462;39.616;8.824;2023-05-10T09:51:08;9.80;;;1.90;;
66607;SDS011;53462;39.616;8.824;2023-05-10T09:53:34;10.15;;;2.00;;
66607;SDS011;53462;39.616;8.824;2023-05-10T09:56:00;10.93;;;2.08;;
66607;SDS011;53462;39.616;8.824;2023-05-10T09:58:26;11.00;;;1.77;;
66607;SDS011;53462;39.616;8.824;2023-05-10T10:00:52;14.60;;;2.28;;
66607;SDS011;53462;39.616;8.824;2023-05-10T10:03:19;10.55;;;2.13;;
66607;SDS011;53462;39.616;8.824;2023-05-10T10:05:47;20.02;;;1.88;;
66607;SDS011;53462;39.616;8.824;2023-05-10T10:08:13;11.18;;;2.28;;
66607;SDS011;53462;39.616;8.824;2023-05-10T10:10:40;9.45;;;1.70;;
66607;SDS011;53462;39.616;8.824;2023-05-10T10:13:07;12.30;;;1.98;;
66607;SDS011;53462;39.616;8.824;2023-05-10T10:15:33;12.93;;;2.20;;
66607;SDS011;53462;39.616;8.824;2023-05-10T10:18:00;7.63;;;1.55;;
66607;SDS011;53462;39.616;8.824;2023-05-10T10:20:26;12.23;;;1.83;;
66607;SDS011;53462;39.616;8.824;2023-05-10T10:22:53;11.50;;;1.85;;
66607;SDS011;53462;39.616;8.824;2023-05-10T10:25:19;6.60;;;1.58;;
66607;SDS011;53462;39.616;8.824;2023-05-10T10:36:04;11.57;;;1.80;;
66607;SDS011;53462;39.616;8.824;2023-05-10T10:41:26;12.60;;;2.15;;
66607;SDS011;53462;39.616;8.824;2023-05-10T10:49:50;8.63;;;2.00;;
66607;SDS011;53462;39.616;8.824;2023-05-10T10:54:59;10.45;;;1.80;;
66607;SDS011;53462;39.616;8.824;2023-05-10T10:57:26;12.68;;;2.45;;
66607;SDS011;53462;39.616;8.824;2023-05-10T11:00:40;14.70;;;2.40;;
66607;SDS011;53462;39.616;8.824;2023-05-10T11:02:45;11.95;;;1.90;;
66607;SDS011;53462;39.616;8.824;2023-05-10T11:08:08;10.27;;;1.92;;
66607;SDS011;53462;39.616;8.824;2023-05-10T11:10:37;14.23;;;2.50;;
66607;SDS011;53462;39.616;8.824;2023-05-10T11:13:07;11.32;;;1.90;;
66607;SDS011;53462;39.616;8.824;2023-05-10T11:15:38;11.60;;;1.75;;
66607;SDS011;53462;39.616;8.824;2023-05-10T11:18:18;13.18;;;2.08;;
66607;SDS011;53462;39.616;8.824;2023-05-10T11:20:58;15.18;;;2.00;;
66607;SDS011;53462;39.616;8.824;2023-05-10T11:23:31;10.50;;;2.10;;
66607;SDS011;53462;39.616;8.824;2023-05-10T11:26:12;10.35;;;2.38;;
66607;SDS011;53462;39.616;8.824;2023-05-10T11:28:47;17.35;;;2.40;;
66607;SDS011;53462;39.616;8.824;2023-05-10T11:31:14;12.45;;;2.25;;
66607;SDS011;53462;39.616;8.824;2023-05-10T11:33:51;15.50;;;2.55;;
66607;SDS011;53462;39.616;8.824;2023-05-10T11:36:25;12.95;;;2.13;;
66607;SDS011;53462;39.616;8.824;2023-05-10T11:38:53;9.98;;;2.30;;
66607;SDS011;53462;39.616;8.824;2023-05-10T11:41:20;16.90;;;2.28;;
66607;SDS011;53462;39.616;8.824;2023-05-10T11:43:48;10.88;;;2.30;;
66607;SDS011;53462;39.616;8.824;2023-05-10T11:46:17;12.70;;;2.10;;
66607;SDS011;53462;39.616;8.824;2023-05-10T11:48:51;12.68;;;2.30;;
66607;SDS011;53462;39.616;8.824;2023-05-10T11:51:29;8.95;;;2.03;;
66607;SDS011;53462;39.616;8.824;2023-05-10T11:53:58;11.43;;;2.30;;
66607;SDS011;53462;39.616;8.824;2023-05-10T11:56:24;11.27;;;2.10;;
66607;SDS011;53462;39.616;8.824;2023-05-10T11:58:52;12.25;;;2.35;;
66607;SDS011;53462;39.616;8.824;2023-05-10T12:01:20;11.10;;;2.08;;
66607;SDS011;53462;39.616;8.824;2023-05-10T12:03:47;15.23;;;2.40;;
66607;SDS011;53462;39.616;8.824;2023-05-10T12:06:18;12.20;;;2.00;;
66607;SDS011;53462;39.616;8.824;2023-05-10T12:08:45;15.77;;;2.85;;
66607;SDS011;53462;39.616;8.824;2023-05-10T12:11:13;14.38;;;2.30;;
66607;SDS011;53462;39.616;8.824;2023-05-10T12:13:41;8.88;;;2.35;;
66607;SDS011;53462;39.616;8.824;2023-05-10T12:16:28;15.13;;;2.15;;
66607;SDS011;53462;39.616;8.824;2023-05-10T12:18:58;11.23;;;2.20;;
66607;SDS011;53462;39.616;8.824;2023-05-10T12:21:26;16.23;;;2.30;;
66607;SDS011;53462;39.616;8.824;2023-05-10T12:23:56;12.80;;;2.67;;
66607;SDS011;53462;39.616;8.824;2023-05-10T12:26:25;9.90;;;2.13;;
66607;SDS011;53462;39.616;8.824;2023-05-10T12:28:53;14.20;;;2.22;;
66607;SDS011;53462;39.616;8.824;2023-05-10T12:31:19;10.18;;;2.00;;
66607;SDS011;53462;39.616;8.824;2023-05-10T12:33:46;15.02;;;1.95;;
66607;SDS011;53462;39.616;8.824;2023-05-10T12:36:15;16.77;;;2.30;;
66607;SDS011;53462;39.616;8.824;2023-05-10T12:38:42;18.10;;;2.17;;
66607;SDS011;53462;39.616;8.824;2023-05-10T12:41:14;13.65;;;2.20;;
66607;SDS011;53462;39.616;8.824;2023-05-10T12:43:41;12.05;;;2.28;;
66607;SDS011;53462;39.616;8.824;2023-05-10T12:46:08;11.95;;;2.55;;
66607;SDS011;53462;39.616;8.824;2023-05-10T12:48:35;12.02;;;2.13;;
66607;SDS011;53462;39.616;8.824;2023-05-10T12:51:02;15.25;;;2.10;;
66607;SDS011;53462;39.616;8.824;2023-05-10T12:53:29;11.05;;;1.80;;
66607;SDS011;53462;39.616;8.824;2023-05-10T12:55:55;11.85;;;1.90;;
66607;SDS011;53462;39.616;8.824;2023-05-10T12:58:21;11.55;;;2.15;;
66607;SDS011;53462;39.616;8.824;2023-05-10T13:00:47;14.13;;;1.85;;
66607;SDS011;53462;39.616;8.824;2023-05-10T13:03:13;13.25;;;2.03;;
66607;SDS011;53462;39.616;8.824;2023-05-10T13:05:40;9.35;;;1.88;;
66607;SDS011;53462;39.616;8.824;2023-05-10T13:08:06;12.35;;;2.05;;
66607;SDS011;53462;39.616;8.824;2023-05-10T13:10:32;14.93;;;2.25;;
66607;SDS011;53462;39.616;8.824;2023-05-10T13:12:58;10.85;;;1.90;;
66607;SDS011;53462;39.616;8.824;2023-05-10T13:15:24;17.60;;;3.00;;
66607;SDS011;53462;39.616;8.824;2023-05-10T13:17:51;12.23;;;2.63;;
66607;SDS011;53462;39.616;8.824;2023-05-10T13:20:18;11.35;;;2.03;;
66607;SDS011;53462;39.616;8.824;2023-05-10T13:22:44;9.65;;;1.52;;
66607;SDS011;53462;39.616;8.824;2023-05-10T13:25:10;12.43;;;2.20;;
66607;SDS011;53462;39.616;8.824;2023-05-10T13:27:40;13.45;;;2.53;;
66607;SDS011;53462;39.616;8.824;2023-05-10T13:30:06;11.50;;;2.03;;
66607;SDS011;53462;39.616;8.824;2023-05-10T13:32:33;13.48;;;2.38;;
66607;SDS011;53462;39.616;8.824;2023-05-10T13:34:59;10.38;;;2.15;;
66607;SDS011;53462;39.616;8.824;2023-05-10T13:37:25;13.85;;;2.17;;
66607;SDS011;53462;39.616;8.824;2023-05-10T13:39:51;17.88;;;2.20;;
66607;SDS011;53462;39.616;8.824;2023-05-10T13:42:17;16.85;;;2.42;;
66607;SDS011;53462;39.616;8.824;2023-05-10T13:44:43;14.32;;;2.00;;
66607;SDS011;53462;39.616;8.824;2023-05-10T13:47:09;9.10;;;1.63;;
66607;SDS011;53462;39.616;8.824;2023-05-10T13:49:36;10.55;;;2.28;;
66607;SDS011;53462;39.616;8.824;2023-05-10T13:52:02;7.15;;;1.45;;
66607;SDS011;53462;39.616;8.824;2023-05-10T13:54:38;8.13;;;1.65;;
66607;SDS011;53462;39.616;8.824;2023-05-10T13:57:04;11.65;;;2.05;;
66607;SDS011;53462;39.616;8.824;2023-05-10T13:59:31;13.00;;;2.72;;
66607;SDS011;53462;39.616;8.824;2023-05-10T14:01:58;9.48;;;1.90;;
66607;SDS011;53462;39.616;8.824;2023-05-10T14:04:24;11.48;;;1.98;;
66607;SDS011;53462;39.616;8.824;2023-05-10T14:06:50;13.82;;;2.30;;
66607;SDS011;53462;39.616;8.824;2023-05-10T14:09:18;12.38;;;2.15;;
66607;SDS011;53462;39.616;8.824;2023-05-10T14:11:44;9.68;;;1.70;;
66607;SDS011;53462;39.616;8.824;2023-05-10T14:14:10;10.93;;;2.22;;
66607;SDS011;53462;39.616;8.824;2023-05-10T14:16:38;13.32;;;1.90;;
66607;SDS011;53462;39.616;8.824;2023-05-10T14:19:06;10.77;;;1.67;;
66607;SDS011;53462;39.616;8.824;2023-05-10T14:21:32;14.27;;;1.80;;
66607;SDS011;53462;39.616;8.824;2023-05-10T14:23:58;12.55;;;2.13;;
66607;SDS011;53462;39.616;8.824;2023-05-10T14:26:24;11.95;;;2.20;;
66607;SDS011;53462;39.616;8.824;2023-05-10T14:28:51;8.30;;;1.70;;
66607;SDS011;53462;39.616;8.824;2023-05-10T14:31:17;10.70;;;1.67;;
66607;SDS011;53462;39.616;8.824;2023-05-10T14:33:46;18.58;;;2.10;;
66607;SDS011;53462;39.616;8.824;2023-05-10T14:36:12;18.95;;;1.98;;
66607;SDS011;53462;39.616;8.824;2023-05-10T14:38:39;8.90;;;1.73;;
66607;SDS011;53462;39.616;8.824;2023-05-10T14:41:05;14.68;;;2.30;;
66607;SDS011;53462;39.616;8.824;2023-05-10T14:43:31;8.45;;;2.03;;
66607;SDS011;53462;39.616;8.824;2023-05-10T14:45:57;8.68;;;1.75;;
66607;SDS011;53462;39.616;8.824;2023-05-10T14:48:23;10.18;;;1.65;;
66607;SDS011;53462;39.616;8.824;2023-05-10T14:50:49;7.93;;;1.58;;
66607;SDS011;53462;39.616;8.824;2023-05-10T14:53:15;15.98;;;2.25;;
66607;SDS011;53462;39.616;8.824;2023-05-10T14:55:41;10.27;;;1.80;;
66607;SDS011;53462;39.616;8.824;2023-05-10T14:58:07;8.65;;;1.70;;
66607;SDS011;53462;39.616;8.824;2023-05-10T15:00:33;10.00;;;1.42;;
66607;SDS011;53462;39.616;8.824;2023-05-10T15:02:59;10.75;;;1.67;;
66607;SDS011;53462;39.616;8.824;2023-05-10T15:05:25;11.93;;;1.80;;
66607;SDS011;53462;39.616;8.824;2023-05-10T15:07:51;10.05;;;1.67;;
66607;SDS011;53462;39.616;8.824;2023-05-10T15:10:17;11.57;;;1.77;;
66607;SDS011;53462;39.616;8.824;2023-05-10T15:12:43;10.52;;;1.80;;
66607;SDS011;53462;39.616;8.824;2023-05-10T15:15:09;11.50;;;2.00;;
66607;SDS011;53462;39.616;8.824;2023-05-10T15:17:35;11.45;;;1.70;;
66607;SDS011;53462;39.616;8.824;2023-05-10T15:20:02;10.63;;;1.63;;
66607;SDS011;53462;39.616;8.824;2023-05-10T15:22:28;12.10;;;1.83;;